Time;durP1;ratioP1;P1;durP2;ratioP2;P2;SDS_P1;SDS_P2;PMS_P1;PMS_P2;Temp;Humidity;BMP_temperature;BMP_pressure;BME280_temperature;BME280_humidity;BME280_pressure;Samples;Min_cycle;Max_cycle;Signal;HPM_P1;HPM_P2
2021/06/11 00:00:41;;;;;;;10.27;8.13;;;512.50;2073.60;;;;;;5074592;28;20478;-79
2021/06/11 00:03:07;;;;;;;9.73;8.27;;;512.60;2048.00;;;;;;5076054;28;20021;-79
2021/06/11 00:05:33;;;;;;;11.23;8.65;;;512.60;2048.00;;;;;;5075766;28;20385;-77
2021/06/11 00:07:59;;;;;;;11.50;8.57;;;512.60;2048.00;;;;;;5073900;28;20043;-78
2021/06/11 00:10:24;;;;;;;10.18;7.68;;;512.70;2022.40;;;;;;5074602;28;20115;-78
2021/06/11 00:12:50;;;;;;;15.48;7.95;;;512.70;2022.40;;;;;;5074749;28;20036;-76
2021/06/11 00:15:16;;;;;;;11.00;8.50;;;512.80;2022.40;;;;;;5074087;28;20036;-80
2021/06/11 00:17:42;;;;;;;9.55;7.88;;;512.80;1996.80;;;;;;5074521;28;20484;-80
2021/06/11 00:20:11;;;;;;;9.27;7.25;;;512.80;1996.80;;;;;;5075418;28;20024;-79
2021/06/11 00:22:40;;;;;;;11.82;8.00;;;512.80;1996.80;;;;;;5075278;28;20388;-78
2021/06/11 00:25:11;;;;;;;11.18;7.93;;;512.80;1996.80;;;;;;5075221;28;20024;-80
2021/06/11 00:27:37;;;;;;;10.93;8.85;;;512.80;1996.80;;;;;;5075508;28;20016;-80
2021/06/11 00:30:07;;;;;;;10.85;8.55;;;512.80;1996.80;;;;;;5073880;28;20461;-79
2021/06/11 00:32:34;;;;;;;9.15;7.88;;;512.80;1996.80;;;;;;5074034;28;20021;-78
2021/06/11 00:35:00;;;;;;;12.52;9.65;;;512.80;1996.80;;;;;;5074193;28;20060;-79
2021/06/11 00:37:25;;;;;;;12.20;10.02;;;512.80;2022.40;;;;;;5075063;28;20020;-77
2021/06/11 00:39:51;;;;;;;11.93;8.85;;;512.70;2022.40;;;;;;5075283;28;20468;-78
2021/06/11 00:42:17;;;;;;;11.85;9.23;;;512.60;2048.00;;;;;;5075038;28;20025;-76
2021/06/11 00:44:43;;;;;;;11.77;8.73;;;512.60;2048.00;;;;;;5075555;28;20101;-79
2021/06/11 00:47:08;;;;;;;14.02;9.27;;;512.60;2048.00;;;;;;5075067;28;20102;-79
2021/06/11 00:49:34;;;;;;;12.50;9.07;;;512.60;2048.00;;;;;;5074758;28;20032;-79
2021/06/11 00:52:00;;;;;;;10.95;8.82;;;512.50;2048.00;;;;;;5073815;28;20034;-80
2021/06/11 00:54:26;;;;;;;10.52;8.27;;;512.40;2048.00;;;;;;5074606;28;20135;-78
2021/06/11 00:56:52;;;;;;;11.88;9.32;;;512.40;2048.00;;;;;;5075056;28;20021;-79
2021/06/11 00:59:18;;;;;;;14.95;8.70;;;512.30;2099.20;;;;;;5073550;28;20452;-77
2021/06/11 01:01:45;;;;;;;11.45;8.98;;;512.30;2073.60;;;;;;5090163;28;20037;-80
2021/06/11 01:04:11;;;;;;;11.52;7.95;;;512.20;2099.20;;;;;;5090521;28;20021;-77
2021/06/11 01:06:40;;;;;;;12.85;9.60;;;487.30;2150.40;;;;;;5074608;28;20056;-80
2021/06/11 01:09:08;;;;;;;12.52;10.60;;;487.20;2176.00;;;;;;5074554;28;20025;-79
2021/06/11 01:11:36;;;;;;;12.02;9.20;;;487.20;2201.60;;;;;;5074603;28;20090;-80
2021/06/11 01:14:03;;;;;;;15.20;9.82;;;487.10;2201.60;;;;;;5074633;28;20043;-78
2021/06/11 01:16:30;;;;;;;11.27;10.13;;;487.10;2201.60;;;;;;5074492;28;20020;-76
2021/06/11 01:18:55;;;;;;;13.38;9.57;;;487.10;2201.60;;;;;;5073313;28;20495;-77
2021/06/11 01:21:23;;;;;;;11.05;9.23;;;487.20;2201.60;;;;;;5089970;28;20040;-77
2021/06/11 01:24:18;;;;;;;13.05;9.52;;;486.90;2176.00;;;;;;5089009;28;20047;-78
2021/06/11 01:26:47;;;;;;;12.38;10.50;;;487.30;2176.00;;;;;;5089979;28;20350;-78
2021/06/11 01:29:22;;;;;;;11.38;9.32;;;487.30;2176.00;;;;;;5082953;28;20099;-80
2021/06/11 01:31:56;;;;;;;11.73;9.30;;;487.30;2150.40;;;;;;5074326;28;20021;-80
2021/06/11 01:34:31;;;;;;;10.75;9.52;;;487.30;2150.40;;;;;;5066195;28;20082;-80
2021/06/11 01:37:12;;;;;;;11.13;8.30;;;487.30;2150.40;;;;;;5052917;28;20033;-79
2021/06/11 01:39:40;;;;;;;9.88;8.00;;;487.20;2176.00;;;;;;5054719;28;20024;-78
2021/06/11 01:42:07;;;;;;;10.48;9.18;;;487.00;2201.60;;;;;;5074501;28;20503;-78
2021/06/11 01:44:38;;;;;;;10.30;8.68;;;487.00;2227.20;;;;;;5074227;28;20499;-78
2021/06/11 01:47:06;;;;;;;12.48;9.50;;;487.00;2227.20;;;;;;5073731;28;20099;-78
2021/06/11 01:49:33;;;;;;;12.40;8.93;;;487.00;2201.60;;;;;;5056177;28;20035;-78
2021/06/11 01:52:05;;;;;;;12.30;8.80;;;487.10;2201.60;;;;;;5052587;28;20445;-79
2021/06/11 01:54:32;;;;;;;12.15;9.00;;;487.10;2201.60;;;;;;5053560;28;20055;-78
2021/06/11 01:56:57;;;;;;;11.00;8.45;;;487.20;2201.60;;;;;;5052684;28;20025;-77
2021/06/11 01:59:24;;;;;;;12.70;9.05;;;487.10;2201.60;;;;;;5061768;28;20059;-78
2021/06/11 02:01:51;;;;;;;10.73;8.52;;;487.00;2201.60;;;;;;5053765;28;20021;-78
2021/06/11 02:04:18;;;;;;;9.93;8.93;;;486.90;2201.60;;;;;;5052422;28;20392;-77
2021/06/11 02:06:44;;;;;;;10.40;9.38;;;486.90;2201.60;;;;;;5052987;28;20388;-77
2021/06/11 02:09:12;;;;;;;10.57;8.93;;;486.80;2252.80;;;;;;5053694;28;20039;-78
2021/06/11 02:11:41;;;;;;;10.07;9.10;;;486.70;2252.80;;;;;;5053662;28;20043;-78
2021/06/11 02:14:11;;;;;;;11.20;9.18;;;486.70;2252.80;;;;;;5053661;28;20025;-78
2021/06/11 02:16:37;;;;;;;13.20;9.98;;;486.80;2252.80;;;;;;5052283;28;20041;-78
2021/06/11 02:19:05;;;;;;;10.00;9.10;;;486.80;2252.80;;;;;;5053741;28;20024;-78
2021/06/11 02:21:31;;;;;;;10.38;9.35;;;486.80;2227.20;;;;;;5052502;28;20541;-79
2021/06/11 02:23:57;;;;;;;13.05;9.93;;;486.60;2252.80;;;;;;5053690;28;20119;-79
2021/06/11 02:26:25;;;;;;;11.80;10.48;;;486.50;2252.80;;;;;;5053596;28;20100;-78
2021/06/11 02:28:52;;;;;;;11.45;10.25;;;486.60;2252.80;;;;;;5053478;28;20021;-78
2021/06/11 02:31:19;;;;;;;11.73;10.52;;;486.60;2278.40;;;;;;5052607;28;20025;-79
2021/06/11 02:33:45;;;;;;;10.57;9.52;;;486.50;2304.00;;;;;;5053421;28;20493;-78
2021/06/11 02:36:11;;;;;;;11.73;10.25;;;486.50;2304.00;;;;;;5060186;28;20017;-77
2021/06/11 02:38:36;;;;;;;11.95;10.35;;;486.50;2304.00;;;;;;5064259;28;20081;-79
2021/06/11 02:41:04;;;;;;;12.25;10.20;;;486.50;2304.00;;;;;;5056861;28;20072;-78
2021/06/11 02:43:31;;;;;;;12.13;9.48;;;486.50;2304.00;;;;;;5057535;28;20126;-78
2021/06/11 02:46:01;;;;;;;13.95;10.00;;;486.50;2304.00;;;;;;5057486;28;20036;-79
2021/06/11 02:48:33;;;;;;;10.93;9.27;;;486.40;2304.00;;;;;;5057184;28;20049;-78
2021/06/11 02:51:12;;;;;;;10.57;8.85;;;486.40;2304.00;;;;;;5057062;28;20066;-77
2021/06/11 02:53:41;;;;;;;11.20;9.07;;;486.40;2304.00;;;;;;5056713;28;20489;-78
2021/06/11 02:56:16;;;;;;;12.23;9.05;;;486.40;2304.00;;;;;;5056626;28;20488;-78
2021/06/11 02:58:48;;;;;;;9.90;8.90;;;486.40;2304.00;;;;;;5055643;28;20116;-77
2021/06/11 03:01:14;;;;;;;9.68;8.68;;;486.40;2278.40;;;;;;5072222;28;20495;-77
2021/06/11 03:03:41;;;;;;;10.23;9.13;;;486.50;2278.40;;;;;;5056651;28;20424;-78
2021/06/11 03:06:10;;;;;;;10.43;9.32;;;486.50;2278.40;;;;;;5056768;28;20070;-78
2021/06/11 03:08:39;;;;;;;11.93;9.25;;;486.40;2304.00;;;;;;5056776;28;20052;-77
2021/06/11 03:11:12;;;;;;;11.93;8.65;;;461.70;2304.00;;;;;;5056492;28;20044;-78
2021/06/11 03:13:40;;;;;;;10.15;9.10;;;461.60;2329.60;;;;;;5056535;28;20060;-77
2021/06/11 03:16:06;;;;;;;9.55;8.55;;;461.50;2355.20;;;;;;5056411;28;20039;-78
2021/06/11 03:18:42;;;;;;;12.90;9.27;;;461.30;2380.80;;;;;;5055209;28;20159;-79
2021/06/11 03:21:24;;;;;;;10.23;9.23;;;461.30;2380.80;;;;;;5056400;28;20075;-78
2021/06/11 03:24:06;;;;;;;11.82;10.10;;;461.20;2380.80;;;;;;5055468;28;20048;-77
2021/06/11 03:27:06;;;;;;;10.30;9.07;;;461.30;2380.80;;;;;;5056227;28;20414;-78
2021/06/11 03:29:36;;;;;;;11.75;9.80;;;461.30;2380.80;;;;;;5055118;28;20560;-78
2021/06/11 03:32:08;;;;;;;11.95;9.52;;;461.30;2380.80;;;;;;5056374;28;20056;-77
2021/06/11 03:34:43;;;;;;;15.05;9.75;;;461.20;2380.80;;;;;;5056248;28;20477;-78
2021/06/11 03:37:15;;;;;;;11.90;10.02;;;461.20;2380.80;;;;;;5055029;28;20037;-78
2021/06/11 03:39:49;;;;;;;12.38;9.63;;;461.20;2380.80;;;;;;5056303;28;20024;-78
2021/06/11 03:42:17;;;;;;;10.25;9.02;;;461.20;2380.80;;;;;;5056270;28;20033;-78
2021/06/11 03:44:47;;;;;;;11.82;10.45;;;461.10;2380.80;;;;;;5056362;28;20469;-79
2021/06/11 03:47:14;;;;;;;12.98;10.07;;;461.20;2380.80;;;;;;5055976;28;20094;-78
2021/06/11 03:49:41;;;;;;;14.38;9.77;;;461.10;2380.80;;;;;;5055813;28;20025;-78
2021/06/11 03:52:08;;;;;;;15.07;9.77;;;461.00;2380.80;;;;;;5055081;28;20029;-78
2021/06/11 03:54:37;;;;;;;11.02;9.85;;;461.00;2380.80;;;;;;5070917;28;20165;-79
2021/06/11 03:57:06;;;;;;;12.85;11.15;;;461.00;2380.80;;;;;;5055247;28;20171;-78
2021/06/11 03:59:34;;;;;;;10.13;8.82;;;461.00;2380.80;;;;;;5056270;28;20029;-77
2021/06/11 04:02:02;;;;;;;10.63;9.52;;;461.00;2380.80;;;;;;5055935;28;20017;-78
2021/06/11 04:04:28;;;;;;;10.93;9.43;;;460.90;2380.80;;;;;;5055843;28;20125;-78
2021/06/11 04:07:07;;;;;;;11.32;8.90;;;460.90;2380.80;;;;;;5055779;28;20025;-79
2021/06/11 04:09:43;;;;;;;10.88;9.75;;;460.90;2380.80;;;;;;5055813;28;20024;-77
2021/06/11 04:12:10;;;;;;;10.70;9.60;;;460.90;2380.80;;;;;;5053905;28;20040;-78
2021/06/11 04:14:47;;;;;;;13.77;9.48;;;461.00;2380.80;;;;;;5055452;28;20029;-79
2021/06/11 04:17:19;;;;;;;12.20;8.70;;;461.20;2380.80;;;;;;5055400;28;20032;-79
2021/06/11 04:19:49;;;;;;;10.10;8.88;;;461.20;2380.80;;;;;;5054127;28;20397;-77
2021/06/11 04:22:21;;;;;;;15.55;8.98;;;461.20;2380.80;;;;;;5053922;28;20033;-78
2021/06/11 04:24:48;;;;;;;11.02;9.15;;;461.10;2380.80;;;;;;5070644;28;20106;-78
2021/06/11 04:27:15;;;;;;;18.58;10.95;;;461.20;2380.80;;;;;;5054048;28;20048;-77
2021/06/11 04:29:42;;;;;;;16.45;10.32;;;461.20;2380.80;;;;;;5055128;28;20473;-78
2021/06/11 04:32:08;;;;;;;18.73;14.27;;;461.30;2380.80;;;;;;5055183;28;20032;-79
2021/06/11 04:34:34;;;;;;;20.05;14.38;;;461.20;2380.80;;;;;;5053534;28;20098;-78
2021/06/11 04:37:00;;;;;;;18.50;14.07;;;461.00;2380.80;;;;;;5055148;28;20029;-77
2021/06/11 04:39:26;;;;;;;14.75;12.38;;;461.00;2380.80;;;;;;5054048;28;20035;-78
2021/06/11 04:41:52;;;;;;;14.10;11.70;;;460.90;2380.80;;;;;;5069314;28;20491;-79
2021/06/11 04:44:18;;;;;;;16.45;13.25;;;460.90;2380.80;;;;;;5073779;28;20070;-78
2021/06/11 04:46:44;;;;;;;16.92;12.82;;;460.90;2380.80;;;;;;5074826;28;20024;-78
2021/06/11 04:49:10;;;;;;;11.85;9.20;;;461.00;2380.80;;;;;;5073220;28;20515;-78
2021/06/11 04:51:37;;;;;;;14.18;10.75;;;461.00;2380.80;;;;;;5054905;28;20418;-78
2021/06/11 04:54:03;;;;;;;11.27;9.35;;;461.20;2380.80;;;;;;5054024;28;20105;-78
2021/06/11 04:56:29;;;;;;;15.13;10.77;;;461.30;2380.80;;;;;;5066230;28;20024;-78
2021/06/11 04:58:55;;;;;;;15.40;10.90;;;461.60;2380.80;;;;;;5074007;28;20431;-79
2021/06/11 05:01:22;;;;;;;10.93;9.18;;;461.60;2380.80;;;;;;5073386;28;20025;-78
2021/06/11 05:03:48;;;;;;;10.52;9.15;;;461.70;2380.80;;;;;;5074476;28;20461;-78
2021/06/11 05:06:14;;;;;;;10.55;9.35;;;486.40;2380.80;;;;;;5068548;28;20107;-78
2021/06/11 05:08:43;;;;;;;10.02;9.05;;;486.50;2380.80;;;;;;5055052;28;20029;-79
2021/06/11 05:11:09;;;;;;;10.95;9.27;;;486.60;2380.80;;;;;;5073087;28;20025;-77
2021/06/11 05:13:35;;;;;;;11.57;9.05;;;486.80;2380.80;;;;;;5073193;28;20029;-78
2021/06/11 05:16:01;;;;;;;12.05;9.73;;;486.80;2380.80;;;;;;5074704;28;20035;-77
2021/06/11 05:18:29;;;;;;;10.95;9.75;;;486.80;2380.80;;;;;;5081910;28;20020;-80
2021/06/11 05:20:55;;;;;;;14.25;9.90;;;486.90;2380.80;;;;;;5091127;28;20036;-76
2021/06/11 05:23:21;;;;;;;9.50;8.25;;;487.10;2380.80;;;;;;5094315;28;20028;-78
2021/06/11 05:25:49;;;;;;;14.48;11.13;;;487.20;2355.20;;;;;;5095405;28;20071;-79
2021/06/11 05:28:15;;;;;;;14.18;11.48;;;512.00;2380.80;;;;;;5089068;28;20024;-78
2021/06/11 05:30:41;;;;;;;14.23;11.48;;;512.10;2329.60;;;;;;5092598;28;20032;-77
2021/06/11 05:33:07;;;;;;;13.48;9.50;;;512.30;2304.00;;;;;;5093255;28;20054;-75
2021/06/11 05:35:34;;;;;;;11.82;9.82;;;512.40;2227.20;;;;;;5085475;28;20036;-77
2021/06/11 05:38:04;;;;;;;12.48;10.70;;;512.50;2201.60;;;;;;5075040;28;20381;-75
2021/06/11 05:40:31;;;;;;;15.57;11.82;;;512.60;2201.60;;;;;;5074180;28;20017;-74
2021/06/11 05:42:57;;;;;;;10.10;9.07;;;512.80;2176.00;;;;;;5074148;28;20126;-76
2021/06/11 05:45:22;;;;;;;13.35;10.88;;;512.90;2176.00;;;;;;5072297;28;20029;-73
2021/06/11 05:47:48;;;;;;;11.63;9.73;;;537.60;2201.60;;;;;;5072588;28;20060;-75
2021/06/11 05:50:14;;;;;;;15.10;10.65;;;537.80;2201.60;;;;;;5072922;28;20602;-76
2021/06/11 05:52:40;;;;;;;14.43;13.02;;;537.90;2176.00;;;;;;5071117;28;20044;-76
2021/06/11 05:55:06;;;;;;;15.50;12.85;;;538.00;2176.00;;;;;;5070930;28;20484;-75
2021/06/11 05:57:32;;;;;;;16.63;11.43;;;538.10;2150.40;;;;;;5073833;28;20025;-75
2021/06/11 05:59:58;;;;;;;13.18;10.57;;;538.30;2150.40;;;;;;5073532;28;20021;-77
2021/06/11 06:02:24;;;;;;;13.60;12.30;;;538.40;2099.20;;;;;;5073687;28;20031;-74
2021/06/11 06:04:50;;;;;;;12.65;10.82;;;538.50;2099.20;;;;;;5069334;28;20025;-74
2021/06/11 06:07:17;;;;;;;13.05;10.23;;;563.20;2073.60;;;;;;5072718;28;20082;-75
2021/06/11 06:09:43;;;;;;;14.52;13.00;;;563.20;2048.00;;;;;;5073894;28;20036;-73
2021/06/11 06:12:10;;;;;;;17.40;13.30;;;563.40;2099.20;;;;;;5077908;28;20070;-75
2021/06/11 06:14:36;;;;;;;15.25;12.38;;;563.50;2073.60;;;;;;5077755;28;20040;-76
2021/06/11 06:17:02;;;;;;;11.57;10.38;;;563.60;2022.40;;;;;;5072466;28;20031;-77
2021/06/11 06:19:28;;;;;;;10.55;9.27;;;563.70;2022.40;;;;;;5073654;28;20028;-74
2021/06/11 06:21:54;;;;;;;12.80;10.48;;;563.80;1996.80;;;;;;5077186;28;20066;-76
2021/06/11 06:24:19;;;;;;;12.88;9.48;;;563.80;1971.20;;;;;;5076284;28;20039;-73
2021/06/11 06:26:45;;;;;;;12.88;11.23;;;564.00;1996.80;;;;;;5071685;28;20074;-75
2021/06/11 06:29:11;;;;;;;11.23;9.85;;;564.10;2022.40;;;;;;5074657;28;20029;-74
2021/06/11 06:31:37;;;;;;;12.68;10.50;;;588.80;1920.00;;;;;;5076526;28;20139;-74
2021/06/11 06:34:03;;;;;;;16.75;11.07;;;588.90;1920.00;;;;;;5076845;28;20089;-74
2021/06/11 06:36:29;;;;;;;12.93;10.73;;;589.00;1945.60;;;;;;5075968;28;20028;-74
2021/06/11 06:38:57;;;;;;;12.98;11.63;;;589.10;1920.00;;;;;;5077253;28;20033;-75
2021/06/11 06:41:23;;;;;;;12.95;11.65;;;589.20;1945.60;;;;;;5077450;28;20028;-76
2021/06/11 06:43:49;;;;;;;14.95;12.73;;;589.20;1894.40;;;;;;5084993;28;20020;-79
2021/06/11 06:46:16;;;;;;;14.50;10.52;;;589.30;1868.80;;;;;;5090064;28;20032;-75
2021/06/11 06:48:42;;;;;;;13.43;11.43;;;589.30;1868.80;;;;;;5088409;28;20070;-76
2021/06/11 06:51:09;;;;;;;11.38;10.25;;;589.30;1894.40;;;;;;5077556;28;20017;-77
2021/06/11 06:53:35;;;;;;;13.55;11.48;;;589.30;1868.80;;;;;;5072918;28;20067;-76
2021/06/11 06:56:01;;;;;;;13.88;11.50;;;589.40;1868.80;;;;;;5076740;28;20048;-75
2021/06/11 06:58:27;;;;;;;12.82;11.52;;;589.40;1868.80;;;;;;5075430;28;20469;-75
2021/06/11 07:00:52;;;;;;;11.63;10.43;;;589.50;1868.80;;;;;;5076058;28;20032;-75
2021/06/11 07:03:18;;;;;;;14.90;11.82;;;589.60;1894.40;;;;;;5074324;28;20485;-75
2021/06/11 07:05:44;;;;;;;11.38;10.25;;;589.70;1843.20;;;;;;5076288;28;20021;-76
2021/06/11 07:08:10;;;;;;;10.50;9.15;;;614.40;1817.60;;;;;;5075628;28;20048;-74
2021/06/11 07:10:36;;;;;;;12.88;10.90;;;614.50;1817.60;;;;;;5076341;28;20024;-76
2021/06/11 07:13:02;;;;;;;12.30;10.60;;;614.50;1817.60;;;;;;5076250;28;20085;-77
2021/06/11 07:15:28;;;;;;;15.73;14.02;;;614.60;1792.00;;;;;;5075125;28;20075;-77
2021/06/11 07:17:56;;;;;;;16.95;13.02;;;614.60;1766.40;;;;;;5076501;28;20021;-78
2021/06/11 07:20:22;;;;;;;11.23;7.55;;;614.70;1715.20;;;;;;5075153;28;20020;-76
2021/06/11 07:22:48;;;;;;;13.95;10.02;;;614.90;1638.40;;;;;;5075778;28;20017;-77
2021/06/11 07:25:14;;;;;;;6.88;6.20;;;615.00;1664.00;;;;;;5070188;28;20477;-77
2021/06/11 07:27:40;;;;;;;9.70;7.22;;;615.00;1561.60;;;;;;5064251;28;20021;-77
2021/06/11 07:30:08;;;;;;;9.95;8.27;;;615.00;1561.60;;;;;;5076086;28;20381;-77
2021/06/11 07:32:35;;;;;;;7.78;6.97;;;615.00;1561.60;;;;;;5076313;28;20020;-76
2021/06/11 07:35:00;;;;;;;9.40;7.57;;;615.10;1587.20;;;;;;5072081;28;20492;-77
2021/06/11 07:37:27;;;;;;;8.32;6.93;;;615.00;1587.20;;;;;;5075977;28;20035;-76
2021/06/11 07:39:52;;;;;;;11.05;8.52;;;615.00;1561.60;;;;;;5076014;28;20095;-77
2021/06/11 07:42:19;;;;;;;13.68;9.77;;;615.00;1612.80;;;;;;5070588;28;20112;-78
2021/06/11 07:44:44;;;;;;;9.23;8.10;;;615.20;1612.80;;;;;;5071534;28;20021;-76
2021/06/11 07:47:11;;;;;;;11.10;9.80;;;615.10;1587.20;;;;;;5072288;28;20039;-77
2021/06/11 07:49:38;;;;;;;10.00;9.00;;;615.00;1638.40;;;;;;5076061;28;20578;-79
2021/06/11 07:52:05;;;;;;;11.55;9.02;;;615.10;1638.40;;;;;;5074417;28;20556;-78
2021/06/11 07:54:31;;;;;;;13.52;8.63;;;615.10;1638.40;;;;;;5069907;28;20388;-76
2021/06/11 07:56:57;;;;;;;10.00;8.48;;;615.10;1612.80;;;;;;5072921;28;20096;-78
2021/06/11 07:59:23;;;;;;;11.88;9.15;;;615.00;1587.20;;;;;;5074305;28;20020;-80
2021/06/11 08:01:49;;;;;;;9.60;8.60;;;614.90;1612.80;;;;;;5075719;28;20055;-76
2021/06/11 08:04:15;;;;;;;13.27;8.60;;;614.90;1587.20;;;;;;5076021;28;20033;-77
2021/06/11 08:06:41;;;;;;;9.65;8.60;;;615.00;1587.20;;;;;;5074851;28;20027;-78
2021/06/11 08:09:07;;;;;;;11.13;9.55;;;615.00;1587.20;;;;;;5072733;28;20025;-77
2021/06/11 08:11:32;;;;;;;12.07;10.85;;;615.10;1587.20;;;;;;5056503;28;20108;-80
2021/06/11 08:13:58;;;;;;;10.98;9.88;;;615.10;1612.80;;;;;;5069168;28;20052;-78
2021/06/11 08:16:24;;;;;;;14.10;9.40;;;615.30;1612.80;;;;;;5082292;28;20015;-77
2021/06/11 08:18:52;;;;;;;12.50;10.20;;;640.00;1638.40;;;;;;5091547;28;20123;-76
2021/06/11 08:21:20;;;;;;;11.52;10.32;;;640.10;1612.80;;;;;;5092152;28;20051;-76
2021/06/11 08:23:46;;;;;;;14.35;10.95;;;640.30;1612.80;;;;;;5086033;28;20138;-77
2021/06/11 08:26:12;;;;;;;11.80;10.50;;;640.50;1587.20;;;;;;5080690;28;20111;-76
2021/06/11 08:28:38;;;;;;;12.32;11.02;;;640.80;1587.20;;;;;;5075086;28;20021;-76
2021/06/11 08:31:04;;;;;;;10.77;9.55;;;640.90;1612.80;;;;;;5074991;28;20016;-76
2021/06/11 08:33:30;;;;;;;15.65;11.75;;;665.70;1612.80;;;;;;5074230;28;20043;-76
2021/06/11 08:35:56;;;;;;;14.68;10.73;;;665.60;1612.80;;;;;;5075344;28;20029;-77
2021/06/11 08:38:22;;;;;;;12.75;9.93;;;665.70;1587.20;;;;;;5074713;28;20027;-77
2021/06/11 08:40:48;;;;;;;10.43;8.80;;;665.80;1587.20;;;;;;5074596;28;20103;-77
2021/06/11 08:43:18;;;;;;;9.15;8.25;;;665.80;1561.60;;;;;;5074658;28;20059;-77
2021/06/11 08:45:45;;;;;;;11.35;10.15;;;665.70;1561.60;;;;;;5072688;28;20025;-77
2021/06/11 08:48:11;;;;;;;17.55;13.98;;;665.80;1587.20;;;;;;5074745;28;20020;-77
2021/06/11 08:50:38;;;;;;;31.77;28.23;;;666.00;1561.60;;;;;;5074350;28;20496;-77
2021/06/11 08:53:05;;;;;;;9.57;8.55;;;666.20;1536.00;;;;;;5072875;28;20098;-76
2021/06/11 08:55:32;;;;;;;46.63;40.25;;;666.40;1484.80;;;;;;5074417;28;20094;-75
2021/06/11 08:57:58;;;;;;;10.30;9.05;;;666.50;1433.60;;;;;;5074079;28;20055;-76
2021/06/11 09:00:25;;;;;;;10.35;9.35;;;666.50;1433.60;;;;;;5074342;28;20028;-77
2021/06/11 09:03:13;;;;;;;20.60;14.07;;;691.20;1459.20;;;;;;5073453;28;20404;-75
2021/06/11 09:05:59;;;;;;;11.02;8.32;;;666.40;1484.80;;;;;;5072822;28;20021;-78
2021/06/11 09:08:27;;;;;;;13.35;11.38;;;666.40;1510.40;;;;;;5062344;28;20047;-78
2021/06/11 09:11:15;;;;;;;21.55;17.73;;;666.50;1484.80;;;;;;5058291;28;20074;-78
2021/06/11 09:13:42;;;;;;;12.18;8.40;;;691.30;1484.80;;;;;;5055287;28;20511;-78
2021/06/11 09:16:11;;;;;;;12.30;8.18;;;666.30;1536.00;;;;;;5067192;28;20029;-76
2021/06/11 09:18:47;;;;;;;12.20;6.38;;;640.70;1587.20;;;;;;5069581;28;20046;-75
2021/06/11 09:21:31;;;;;;;13.95;6.88;;;615.10;1664.00;;;;;;5073719;28;20021;-73
2021/06/11 09:24:27;;;;;;;11.90;6.18;;;589.20;1843.20;;;;;;5072382;28;20372;-75
2021/06/11 09:27:05;;;;;;;10.88;6.32;;;563.70;1868.80;;;;;;5070292;28;20082;-76
2021/06/11 09:29:45;;;;;;;19.77;7.60;;;538.50;1843.20;;;;;;5074081;28;20366;-75
2021/06/11 09:32:11;;;;;;;12.52;5.32;;;538.10;1894.40;;;;;;5073702;28;20029;-75
2021/06/11 09:34:37;;;;;;;5.97;4.65;;;538.00;1868.80;;;;;;5073496;28;20094;-73
2021/06/11 09:37:11;;;;;;;10.43;4.70;;;512.90;1817.60;;;;;;5073564;28;20038;-74
2021/06/11 09:40:10;;;;;;;8.60;5.45;;;512.50;1868.80;;;;;;5065562;28;20032;-75
2021/06/11 09:42:44;;;;;;;8.52;6.03;;;512.20;1971.20;;;;;;5030010;28;20095;-79
2021/06/11 09:45:15;;;;;;;10.93;6.72;;;512.00;2124.80;;;;;;5029619;28;20041;-73
2021/06/11 09:47:49;;;;;;;8.90;6.57;;;512.20;2124.80;;;;;;5027641;28;20429;-73
2021/06/11 09:50:18;;;;;;;8.73;6.00;;;512.40;2176.00;;;;;;5031104;28;20033;-80
2021/06/11 09:52:56;;;;;;;10.95;7.22;;;512.40;2048.00;;;;;;5025207;28;20391;-77
2021/06/11 09:55:49;;;;;;;10.45;7.82;;;512.60;2099.20;;;;;;4953369;28;20061;-76
2021/06/11 09:58:15;;;;;;;9.18;6.35;;;512.90;2048.00;;;;;;4953237;29;20510;-76
2021/06/11 10:00:46;;;;;;;9.73;5.50;;;537.60;2022.40;;;;;;4950754;28;20039;-75
2021/06/11 10:03:27;;;;;;;11.68;4.82;;;512.90;2022.40;;;;;;4935024;29;20036;-75
2021/06/11 10:05:55;;;;;;;10.32;6.05;;;512.80;1971.20;;;;;;4953118;29;20063;-75
2021/06/11 10:08:21;;;;;;;8.32;4.97;;;512.80;2124.80;;;;;;4952964;29;20173;-76
2021/06/11 10:10:49;;;;;;;5.97;5.38;;;512.50;2176.00;;;;;;4957442;28;20111;-74
2021/06/11 10:13:16;;;;;;;10.93;5.57;;;512.40;2201.60;;;;;;4957382;29;20035;-76
2021/06/11 10:15:44;;;;;;;12.23;6.25;;;512.20;2201.60;;;;;;4953809;29;20066;-75
2021/06/11 10:18:10;;;;;;;6.55;5.03;;;512.20;2278.40;;;;;;4972486;28;20034;-75
2021/06/11 10:20:37;;;;;;;10.48;6.47;;;512.10;2227.20;;;;;;4991638;28;20041;-74
2021/06/11 10:23:05;;;;;;;6.55;4.70;;;512.00;2252.80;;;;;;4991151;28;20359;-74
2021/06/11 10:25:31;;;;;;;7.75;6.55;;;487.30;2176.00;;;;;;4991653;28;20479;-75
2021/06/11 10:27:59;;;;;;;9.85;7.32;;;487.20;2227.20;;;;;;4991841;28;20083;-74
2021/06/11 10:30:27;;;;;;;8.00;7.18;;;487.10;2227.20;;;;;;4991575;28;20142;-75
2021/06/11 10:32:54;;;;;;;9.20;7.53;;;487.00;2227.20;;;;;;5029358;28;20032;-75
2021/06/11 10:35:54;;;;;;;8.45;7.13;;;487.00;2176.00;;;;;;5071781;28;20032;-74
2021/06/11 10:38:35;;;;;;;10.98;7.65;;;487.10;2150.40;;;;;;5033254;28;20555;-74
2021/06/11 10:41:03;;;;;;;9.38;8.15;;;487.10;2201.60;;;;;;5042143;28;20436;-75
2021/06/11 10:43:39;;;;;;;10.65;6.82;;;487.00;2227.20;;;;;;5032754;28;20433;-75
2021/06/11 10:46:21;;;;;;;9.30;6.38;;;486.90;2073.60;;;;;;5031009;28;20034;-75
2021/06/11 10:48:56;;;;;;;7.23;6.47;;;487.00;2022.40;;;;;;5041625;28;20139;-74
2021/06/11 10:51:45;;;;;;;8.75;7.35;;;486.90;2124.80;;;;;;5050515;28;20455;-75
2021/06/11 10:54:19;;;;;;;9.35;7.78;;;486.90;2150.40;;;;;;5031319;28;20065;-74
2021/06/11 10:56:57;;;;;;;9.45;7.63;;;486.90;2176.00;;;;;;5030755;28;20041;-76
2021/06/11 10:59:39;;;;;;;11.45;7.85;;;487.00;2201.60;;;;;;5035032;28;20045;-76
2021/06/11 11:02:07;;;;;;;12.73;7.43;;;487.10;2150.40;;;;;;5042529;28;20037;-79
2021/06/11 11:04:35;;;;;;;9.27;7.78;;;487.20;2150.40;;;;;;5038819;28;20108;-76
2021/06/11 11:07:23;;;;;;;11.25;8.32;;;487.20;2150.40;;;;;;5054643;28;20586;-75
2021/06/11 11:09:56;;;;;;;11.27;7.82;;;487.30;2150.40;;;;;;5053676;28;20110;-77
2021/06/11 11:12:29;;;;;;;8.82;7.05;;;512.00;2124.80;;;;;;5066044;28;20064;-78
2021/06/11 11:15:00;;;;;;;11.02;7.50;;;512.00;2150.40;;;;;;5076236;28;20032;-77
2021/06/11 11:17:27;;;;;;;11.27;6.53;;;512.10;2124.80;;;;;;5076324;28;20017;-76
2021/06/11 11:19:58;;;;;;;8.40;6.85;;;512.10;2073.60;;;;;;5075110;28;20024;-77
2021/06/11 11:22:29;;;;;;;8.75;6.22;;;512.20;2073.60;;;;;;5075968;28;20024;-77
2021/06/11 11:24:56;;;;;;;8.88;6.78;;;512.60;2022.40;;;;;;5074686;28;20112;-76
2021/06/11 11:27:23;;;;;;;8.43;6.50;;;537.80;2073.60;;;;;;5074933;28;20471;-75
2021/06/11 11:29:49;;;;;;;9.13;5.45;;;538.30;1920.00;;;;;;5076090;28;20029;-76
2021/06/11 11:32:15;;;;;;;6.85;4.63;;;563.40;1868.80;;;;;;5076036;28;20032;-76
2021/06/11 11:34:41;;;;;;;9.32;6.35;;;563.80;1894.40;;;;;;5075969;28;20037;-78
2021/06/11 11:37:07;;;;;;;6.32;4.90;;;588.80;1843.20;;;;;;5075905;28;20021;-78
2021/06/11 11:39:33;;;;;;;5.25;4.35;;;589.00;1689.60;;;;;;5075755;28;20035;-77
2021/06/11 11:41:58;;;;;;;6.95;5.68;;;589.20;1664.00;;;;;;5076069;28;20050;-77
2021/06/11 11:44:26;;;;;;;13.52;6.15;;;589.30;1740.80;;;;;;5076015;28;20031;-77
2021/06/11 11:46:54;;;;;;;10.43;6.90;;;589.40;1817.60;;;;;;5074223;28;20020;-77
2021/06/11 11:49:21;;;;;;;8.57;6.38;;;589.70;1868.80;;;;;;5073119;28;20055;-77
2021/06/11 11:51:48;;;;;;;8.38;6.25;;;614.60;1817.60;;;;;;5076025;28;20021;-76
2021/06/11 11:54:14;;;;;;;11.38;5.43;;;614.80;1740.80;;;;;;5075462;28;20056;-77
2021/06/11 11:56:40;;;;;;;8.30;5.95;;;614.70;1664.00;;;;;;5075519;28;20031;-75
2021/06/11 11:59:07;;;;;;;8.95;6.95;;;614.50;1740.80;;;;;;5075936;28;20074;-77
2021/06/11 12:01:37;;;;;;;7.85;6.28;;;614.60;1766.40;;;;;;5074463;28;20111;-78
2021/06/11 12:04:03;;;;;;;8.40;6.15;;;614.60;1766.40;;;;;;5075181;28;20031;-77
2021/06/11 12:06:29;;;;;;;10.48;6.28;;;614.50;1740.80;;;;;;5075486;28;20021;-77
2021/06/11 12:08:54;;;;;;;7.43;5.50;;;614.50;1740.80;;;;;;5075063;28;20507;-78
2021/06/11 12:11:20;;;;;;;10.88;5.88;;;614.50;1740.80;;;;;;5074150;28;20449;-77
2021/06/11 12:13:46;;;;;;;23.65;7.90;;;589.70;1715.20;;;;;;5072694;28;20077;-77
2021/06/11 12:16:11;;;;;;;9.48;7.43;;;589.70;1740.80;;;;;;5071414;28;20032;-77